Time;durP1;ratioP1;P1;durP2;ratioP2;P2;SDS_P1;SDS_P2;PMS_P1;PMS_P2;Temp;Humidity;BMP_temperature;BMP_pressure;BME280_temperature;BME280_humidity;BME280_pressure;Samples;Min_cycle;Max_cycle;Signal;HPM_P1;HPM_P2
2021/09/14 00:02:15;;;;;;;0.40;0.30;;;16.60;99.90;;;;;;5091095;28;21115;-70
2021/09/14 00:04:40;;;;;;;0.40;0.30;;;16.50;99.90;;;;;;5091706;28;20404;-70
2021/09/14 00:07:06;;;;;;;0.40;0.20;;;16.60;99.90;;;;;;5072692;28;20394;-70
2021/09/14 00:09:32;;;;;;;0.40;0.30;;;16.40;99.90;;;;;;5087690;28;20395;-70
2021/09/14 00:11:58;;;;;;;0.40;0.20;;;16.40;99.90;;;;;;5070722;28;20407;-71
2021/09/14 00:14:24;;;;;;;0.40;0.30;;;16.40;99.90;;;;;;5071350;28;20546;-70
2021/09/14 00:16:49;;;;;;;0.40;0.20;;;16.50;99.90;;;;;;5071483;28;20471;-70
2021/09/14 00:19:16;;;;;;;0.40;0.30;;;16.40;99.90;;;;;;5070617;28;20755;-70
2021/09/14 00:21:42;;;;;;;0.40;0.20;;;16.30;99.90;;;;;;5053166;28;20380;-70
2021/09/14 00:24:07;;;;;;;0.40;0.30;;;16.30;99.90;;;;;;5070830;28;20716;-70
2021/09/14 00:26:33;;;;;;;0.40;0.30;;;16.10;99.90;;;;;;5071081;28;20494;-70
2021/09/14 00:29:00;;;;;;;0.40;0.30;;;16.20;99.90;;;;;;5070615;28;20844;-70
2021/09/14 00:31:26;;;;;;;0.40;0.20;;;16.20;99.90;;;;;;5071025;28;20482;-70
2021/09/14 00:33:52;;;;;;;0.40;0.30;;;16.10;99.90;;;;;;5052959;28;20392;-70
2021/09/14 00:36:18;;;;;;;0.40;0.20;;;16.10;99.90;;;;;;5070257;28;20387;-70
2021/09/14 00:38:44;;;;;;;0.40;0.20;;;16.30;99.90;;;;;;5070963;28;20372;-70
2021/09/14 00:41:10;;;;;;;0.40;0.20;;;16.30;99.90;;;;;;5070083;28;20479;-70
2021/09/14 00:43:35;;;;;;;0.40;0.30;;;16.30;99.90;;;;;;5071039;28;20404;-70
2021/09/14 00:46:01;;;;;;;0.40;0.30;;;16.40;99.90;;;;;;5069889;28;20856;-70
2021/09/14 00:48:27;;;;;;;0.40;0.20;;;16.30;99.90;;;;;;5070784;28;20384;-70
2021/09/14 00:50:53;;;;;;;0.40;0.20;;;16.30;99.90;;;;;;5070403;28;20781;-70
2021/09/14 00:53:19;;;;;;;0.40;0.30;;;16.30;99.90;;;;;;5070212;28;20603;-70
2021/09/14 00:55:46;;;;;;;0.40;0.30;;;16.30;99.90;;;;;;5071045;28;20415;-71
2021/09/14 00:58:11;;;;;;;0.40;0.25;;;16.30;99.90;;;;;;5070469;28;20384;-70
2021/09/14 01:00:37;;;;;;;0.40;0.30;;;16.00;99.90;;;;;;5070305;28;20380;-70
2021/09/14 01:03:04;;;;;;;0.40;0.30;;;16.00;99.90;;;;;;5069987;28;20415;-70
2021/09/14 01:05:30;;;;;;;0.40;0.30;;;16.10;99.90;;;;;;5070254;28;20767;-70
2021/09/14 01:07:56;;;;;;;0.40;0.20;;;16.00;99.90;;;;;;5070627;28;20844;-70
2021/09/14 01:10:22;;;;;;;0.40;0.30;;;16.10;99.90;;;;;;5081052;28;20394;-70
2021/09/14 01:12:48;;;;;;;0.40;0.30;;;15.90;99.90;;;;;;5090632;28;20435;-70
2021/09/14 01:15:15;;;;;;;0.40;0.30;;;15.80;99.90;;;;;;5089659;28;20862;-70
2021/09/14 01:17:41;;;;;;;0.40;0.30;;;15.80;99.90;;;;;;5090729;28;20462;-70
2021/09/14 01:20:07;;;;;;;0.40;0.30;;;15.70;99.90;;;;;;5090099;28;20398;-70
2021/09/14 01:22:34;;;;;;;0.40;0.30;;;15.70;99.90;;;;;;5090479;28;20849;-70
2021/09/14 01:25:12;;;;;;;0.40;0.40;;;15.70;99.90;;;;;;5090664;28;20374;-70
2021/09/14 01:27:38;;;;;;;0.40;0.20;;;15.60;99.90;;;;;;5090601;28;20468;-70
2021/09/14 01:30:13;;;;;;;0.40;0.30;;;15.70;99.90;;;;;;5090034;28;20751;-70
2021/09/14 01:32:44;;;;;;;0.40;0.30;;;15.70;99.90;;;;;;5090030;28;20461;-70
2021/09/14 01:35:12;;;;;;;0.40;0.20;;;15.80;99.90;;;;;;5089863;28;20394;-70
2021/09/14 01:37:38;;;;;;;0.40;0.30;;;15.80;99.90;;;;;;5072515;28;20469;-70
2021/09/14 01:40:05;;;;;;;0.40;0.30;;;15.90;99.90;;;;;;5071798;28;20386;-70
2021/09/14 01:42:31;;;;;;;0.40;0.20;;;15.80;99.90;;;;;;5090412;28;20386;-70
2021/09/14 01:44:56;;;;;;;0.40;0.20;;;15.80;99.90;;;;;;5090322;28;20389;-70
2021/09/14 01:47:22;;;;;;;0.40;0.30;;;15.60;99.90;;;;;;5071812;28;20417;-70
2021/09/14 01:49:48;;;;;;;0.40;0.20;;;15.70;99.90;;;;;;5090089;28;20397;-70
2021/09/14 01:52:14;;;;;;;0.40;0.20;;;15.80;99.90;;;;;;5089796;28;20393;-70
2021/09/14 01:54:39;;;;;;;0.40;0.30;;;15.70;99.90;;;;;;5090350;28;20398;-70
2021/09/14 01:57:05;;;;;;;0.40;0.20;;;15.90;99.90;;;;;;5089588;28;20401;-70
2021/09/14 01:59:32;;;;;;;0.40;0.30;;;15.80;99.90;;;;;;5090427;28;20526;-70
2021/09/14 02:04:41;;;;;;;0.40;0.20;;;15.70;99.90;;;;;;5090403;28;20387;-70
2021/09/14 02:42:19;;;;;;;0.40;0.30;;;15.20;99.90;;;;;;5073071;28;20859;-70
2021/09/14 02:45:01;;;;;;;0.40;0.28;;;15.20;99.90;;;;;;5073104;28;20391;-70
2021/09/14 03:01:09;;;;;;;0.40;0.20;;;15.10;99.90;;;;;;5072483;28;20415;-70
2021/09/14 03:03:36;;;;;;;0.40;0.30;;;15.20;99.90;;;;;;5072598;28;20417;-70
2021/09/14 03:06:02;;;;;;;0.40;0.30;;;15.30;99.90;;;;;;5072649;28;20388;-70
2021/09/14 03:08:27;;;;;;;0.40;0.20;;;15.10;99.90;;;;;;5072328;28;20384;-70
2021/09/14 03:10:53;;;;;;;0.40;0.30;;;15.10;99.90;;;;;;5088185;28;20378;-70
2021/09/14 03:13:19;;;;;;;0.40;0.20;;;15.10;99.90;;;;;;5091963;28;20397;-70
2021/09/14 03:15:44;;;;;;;0.40;0.25;;;15.00;99.90;;;;;;5092824;28;20382;-70
2021/09/14 03:18:10;;;;;;;0.40;0.30;;;15.00;99.90;;;;;;5092309;28;20374;-70
2021/09/14 03:20:36;;;;;;;0.40;0.30;;;15.00;99.90;;;;;;5092543;28;20379;-70
2021/09/14 03:23:01;;;;;;;0.40;0.20;;;15.00;99.90;;;;;;5092296;28;20386;-70
2021/09/14 03:25:27;;;;;;;0.40;0.20;;;15.00;99.90;;;;;;5091889;28;20665;-70
2021/09/14 03:27:53;;;;;;;0.40;0.30;;;15.10;99.90;;;;;;5092048;28;20387;-70
2021/09/14 03:30:18;;;;;;;0.40;0.30;;;15.00;99.90;;;;;;5091950;28;20386;-70
2021/09/14 03:32:44;;;;;;;0.40;0.40;;;15.10;99.90;;;;;;5092349;28;20413;-70
2021/09/14 03:35:10;;;;;;;0.40;0.30;;;15.10;99.90;;;;;;5091651;28;20473;-70
2021/09/14 03:37:36;;;;;;;0.40;0.30;;;15.10;99.90;;;;;;5073974;28;20406;-71
2021/09/14 03:40:03;;;;;;;0.40;0.40;;;15.10;99.90;;;;;;5092103;28;20393;-70
2021/09/14 03:42:28;;;;;;;0.40;0.30;;;15.20;99.90;;;;;;5091923;28;20621;-70
2021/09/14 03:44:54;;;;;;;0.40;0.20;;;15.10;99.90;;;;;;5073854;28;20386;-69
2021/09/14 03:47:20;;;;;;;0.40;0.20;;;15.20;99.90;;;;;;5091602;28;20416;-69
2021/09/14 03:49:45;;;;;;;0.40;0.20;;;15.20;99.90;;;;;;5091758;28;20850;-69
2021/09/14 03:52:11;;;;;;;0.40;0.20;;;15.30;99.90;;;;;;5091368;28;20379;-70
2021/09/14 03:54:36;;;;;;;0.40;0.30;;;15.30;99.90;;;;;;5091488;28;20401;-70
2021/09/14 03:57:03;;;;;;;0.40;0.20;;;15.30;99.90;;;;;;5091869;28;20738;-70
2021/09/14 03:59:28;;;;;;;0.40;0.30;;;15.30;99.90;;;;;;5091103;28;20735;-69
2021/09/14 04:01:57;;;;;;;0.40;0.20;;;15.30;99.90;;;;;;5091590;28;20915;-69
2021/09/14 04:04:47;;;;;;;0.40;0.20;;;15.30;99.90;;;;;;5091699;28;20821;-70
2021/09/14 04:07:36;;;;;;;0.40;0.30;;;15.40;99.90;;;;;;5091808;28;20750;-70
2021/09/14 04:10:03;;;;;;;0.40;0.30;;;15.40;99.90;;;;;;5083760;28;20376;-70
2021/09/14 04:12:29;;;;;;;0.40;0.20;;;15.50;99.90;;;;;;5071309;28;20390;-69
2021/09/14 04:14:55;;;;;;;0.40;0.30;;;15.50;99.90;;;;;;5071410;28;20395;-69
2021/09/14 04:17:21;;;;;;;0.40;0.40;;;15.50;99.90;;;;;;5071352;28;20528;-70
2021/09/14 04:19:46;;;;;;;0.40;0.30;;;15.50;99.90;;;;;;5071505;28;20810;-69
2021/09/14 04:22:12;;;;;;;0.40;0.20;;;15.50;99.90;;;;;;5071202;28;20760;-70
2021/09/14 04:24:38;;;;;;;0.40;0.30;;;15.50;99.90;;;;;;5071672;28;20398;-70
2021/09/14 04:27:04;;;;;;;0.40;0.30;;;15.50;99.90;;;;;;5071473;28;20380;-70
2021/09/14 04:29:29;;;;;;;0.40;0.30;;;15.50;99.90;;;;;;5071322;28;20934;-69
2021/09/14 04:31:55;;;;;;;0.40;0.20;;;15.50;99.90;;;;;;5071798;28;20487;-70
2021/09/14 04:34:21;;;;;;;0.40;0.30;;;15.40;99.90;;;;;;5070692;28;20824;-69
2021/09/14 04:36:47;;;;;;;0.40;0.30;;;15.30;99.90;;;;;;5071332;28;20474;-70
2021/09/14 04:39:12;;;;;;;0.40;0.20;;;15.30;99.90;;;;;;5070531;28;20425;-70
2021/09/14 04:41:38;;;;;;;0.40;0.30;;;15.30;99.90;;;;;;5071530;28;20387;-70
2021/09/14 04:44:04;;;;;;;0.40;0.20;;;15.30;99.90;;;;;;5071195;28;20462;-70
2021/09/14 04:46:29;;;;;;;0.40;0.23;;;15.30;99.90;;;;;;5070977;28;20383;-70
2021/09/14 04:48:55;;;;;;;0.40;0.20;;;15.20;99.90;;;;;;5071706;28;20387;-70
2021/09/14 04:51:21;;;;;;;0.40;0.30;;;15.20;99.90;;;;;;5070821;28;20466;-70
2021/09/14 04:53:46;;;;;;;0.40;0.30;;;15.30;99.90;;;;;;5053271;28;20434;-69
2021/09/14 04:56:12;;;;;;;0.40;0.20;;;15.40;99.90;;;;;;5071331;28;20376;-70
2021/09/14 04:58:40;;;;;;;0.40;0.20;;;15.50;99.90;;;;;;5071189;28;20501;-72
2021/09/14 05:01:05;;;;;;;0.40;0.20;;;15.50;99.90;;;;;;5053081;28;20415;-72
2021/09/14 05:03:31;;;;;;;0.40;0.30;;;15.50;99.90;;;;;;5070600;28;20395;-73
2021/09/14 05:05:57;;;;;;;0.40;0.30;;;15.50;99.90;;;;;;5071055;28;20379;-72
2021/09/14 05:08:23;;;;;;;0.40;0.20;;;15.50;99.90;;;;;;5070696;28;20728;-73
2021/09/14 05:10:49;;;;;;;0.40;0.20;;;15.60;99.90;;;;;;5085623;28;20382;-73
2021/09/14 05:13:15;;;;;;;0.40;0.30;;;15.50;99.90;;;;;;5090415;28;20390;-73
2021/09/14 05:15:41;;;;;;;0.40;0.30;;;15.50;99.90;;;;;;5090879;28;20386;-72
2021/09/14 05:18:13;;;;;;;0.40;0.30;;;15.40;99.90;;;;;;5091302;28;20434;-72
2021/09/14 05:20:40;;;;;;;0.40;0.20;;;15.60;99.90;;;;;;5073524;28;20539;-72
2021/09/14 05:23:15;;;;;;;0.40;0.20;;;15.50;99.90;;;;;;5091234;28;20730;-72
2021/09/14 05:25:45;;;;;;;0.40;0.30;;;15.50;99.90;;;;;;5090587;28;20382;-72
2021/09/14 05:28:13;;;;;;;0.40;0.20;;;15.60;99.90;;;;;;5064357;28;20398;-71
2021/09/14 05:30:40;;;;;;;0.40;0.20;;;15.60;99.90;;;;;;5055547;28;20708;-71
2021/09/14 05:33:06;;;;;;;0.40;0.30;;;15.60;99.90;;;;;;5050207;28;20429;-72
2021/09/14 05:35:49;;;;;;;0.40;0.25;;;15.60;99.90;;;;;;5050143;28;20369;-72
2021/09/14 05:38:20;;;;;;;0.40;0.30;;;15.60;99.90;;;;;;5050871;28;20393;-74
2021/09/14 05:40:48;;;;;;;0.40;0.20;;;15.50;99.90;;;;;;5033134;28;20882;-72
2021/09/14 05:43:14;;;;;;;0.40;0.20;;;15.50;99.90;;;;;;5054642;28;20805;-72
2021/09/14 05:45:40;;;;;;;0.40;0.30;;;15.50;99.90;;;;;;5061086;28;20408;-72
2021/09/14 05:48:06;;;;;;;0.40;0.30;;;15.40;99.90;;;;;;5050669;28;20378;-71
2021/09/14 05:50:31;;;;;;;0.40;0.20;;;15.50;99.90;;;;;;5049835;28;20844;-72
2021/09/14 05:52:57;;;;;;;0.40;0.30;;;15.50;99.90;;;;;;5053069;28;20699;-72
2021/09/14 05:55:23;;;;;;;0.40;0.20;;;15.60;99.90;;;;;;5054055;28;20854;-72
2021/09/14 05:57:48;;;;;;;0.40;0.20;;;15.60;99.90;;;;;;5054316;28;20853;-72
2021/09/14 06:00:14;;;;;;;0.40;0.30;;;15.70;99.90;;;;;;5054775;28;20389;-72
2021/09/14 06:02:40;;;;;;;0.40;0.30;;;15.70;99.90;;;;;;5053163;28;20413;-72
2021/09/14 06:05:07;;;;;;;0.40;0.20;;;15.80;99.90;;;;;;5054214;28;20484;-73
2021/09/14 06:07:33;;;;;;;0.40;0.20;;;15.70;99.90;;;;;;5053517;28;20386;-72
2021/09/14 06:10:00;;;;;;;0.40;0.20;;;15.80;99.90;;;;;;5072601;28;20389;-72
2021/09/14 06:12:25;;;;;;;0.40;0.20;;;15.80;99.90;;;;;;5056487;28;20402;-73
2021/09/14 06:14:51;;;;;;;0.40;0.30;;;15.90;99.90;;;;;;5073988;28;20875;-72
2021/09/14 06:17:17;;;;;;;0.40;0.20;;;15.90;99.90;;;;;;5074042;28;20474;-72
2021/09/14 06:19:43;;;;;;;0.40;0.30;;;15.90;99.90;;;;;;5073233;28;20384;-72
2021/09/14 06:22:09;;;;;;;0.40;0.20;;;16.00;99.90;;;;;;5074021;28;20843;-71
2021/09/14 06:24:35;;;;;;;0.40;0.30;;;16.10;99.90;;;;;;5073243;28;20486;-72
2021/09/14 06:27:00;;;;;;;0.40;0.30;;;16.20;99.90;;;;;;5073917;28;20471;-71
2021/09/14 06:29:26;;;;;;;0.40;0.30;;;16.30;99.90;;;;;;5072997;28;20388;-72
2021/09/14 06:31:52;;;;;;;0.40;0.20;;;16.30;99.90;;;;;;5073795;28;20516;-71
2021/09/14 06:34:17;;;;;;;0.40;0.20;;;16.30;99.90;;;;;;5073496;28;20407;-73
2021/09/14 06:36:43;;;;;;;0.40;0.20;;;16.30;99.90;;;;;;5072826;28;20862;-72
2021/09/14 06:39:09;;;;;;;0.40;0.20;;;16.40;99.90;;;;;;5073422;28;20376;-72
2021/09/14 06:41:34;;;;;;;0.40;0.20;;;16.50;99.90;;;;;;5072800;28;20411;-73
2021/09/14 06:44:00;;;;;;;0.40;0.30;;;16.60;99.90;;;;;;5073660;28;20459;-72
2021/09/14 06:46:25;;;;;;;0.40;0.30;;;16.70;99.90;;;;;;5072802;28;20886;-72
2021/09/14 06:48:52;;;;;;;0.40;0.20;;;16.80;99.90;;;;;;5073345;28;20429;-72
2021/09/14 06:51:18;;;;;;;0.40;0.20;;;16.80;99.90;;;;;;5073228;28;20786;-72
2021/09/14 06:53:44;;;;;;;0.40;0.20;;;16.80;99.90;;;;;;5072647;28;20403;-72
2021/09/14 06:56:10;;;;;;;0.40;0.20;;;17.10;99.90;;;;;;5065845;28;20743;-74
2021/09/14 06:58:36;;;;;;;0.40;0.20;;;17.10;99.90;;;;;;5054973;28;20400;-73
2021/09/14 07:01:02;;;;;;;0.40;0.28;;;17.30;99.90;;;;;;5061501;28;20395;-73
2021/09/14 07:03:28;;;;;;;0.40;0.20;;;17.60;99.90;;;;;;5057862;28;20403;-72
2021/09/14 07:05:54;;;;;;;0.40;0.20;;;17.70;99.90;;;;;;5059968;28;20811;-72
2021/09/14 07:08:21;;;;;;;0.40;0.30;;;17.70;99.90;;;;;;5058372;28;20376;-72
2021/09/14 07:10:47;;;;;;;0.40;0.20;;;17.80;99.90;;;;;;5059515;28;20380;-73
2021/09/14 07:13:13;;;;;;;0.40;0.20;;;17.90;99.90;;;;;;5059901;28;20415;-73
2021/09/14 07:15:38;;;;;;;0.40;0.30;;;17.90;99.90;;;;;;5059315;28;20402;-74
2021/09/14 07:18:04;;;;;;;0.40;0.30;;;18.00;99.90;;;;;;5058155;28;20380;-73
2021/09/14 07:20:30;;;;;;;0.40;0.20;;;18.10;99.90;;;;;;5059083;28;20415;-74
2021/09/14 07:22:57;;;;;;;0.40;0.30;;;18.30;99.90;;;;;;5060338;28;20379;-73
2021/09/14 07:25:22;;;;;;;0.40;0.20;;;18.60;99.90;;;;;;5059410;28;20863;-73
2021/09/14 07:27:48;;;;;;;0.40;0.20;;;18.80;99.90;;;;;;5058047;28;20379;-72
2021/09/14 07:30:14;;;;;;;0.40;0.20;;;18.80;99.90;;;;;;5045397;28;20392;-73
2021/09/14 07:32:39;;;;;;;0.40;0.30;;;18.80;99.90;;;;;;5058341;28;20407;-73
2021/09/14 07:35:06;;;;;;;0.40;0.30;;;18.90;99.90;;;;;;5059684;28;20419;-73
2021/09/14 07:37:32;;;;;;;0.40;0.20;;;18.90;99.90;;;;;;5056803;28;20392;-74
2021/09/14 07:39:57;;;;;;;0.40;0.20;;;19.00;99.90;;;;;;5059254;28;20427;-74
2021/09/14 07:42:23;;;;;;;0.40;0.30;;;19.10;99.90;;;;;;5058202;28;20468;-73
2021/09/14 07:44:50;;;;;;;0.40;0.20;;;19.30;99.90;;;;;;5058795;28;20391;-73
2021/09/14 07:47:16;;;;;;;0.40;0.20;;;19.40;99.90;;;;;;5057450;28;20718;-73
2021/09/14 07:49:42;;;;;;;0.40;0.30;;;19.50;99.90;;;;;;5058213;28;20479;-74
2021/09/14 07:52:08;;;;;;;0.40;0.30;;;19.60;99.90;;;;;;5058886;28;20392;-73
2021/09/14 07:54:34;;;;;;;0.40;0.30;;;19.60;99.90;;;;;;5057484;28;20849;-73
2021/09/14 07:57:00;;;;;;;0.40;0.30;;;19.70;99.90;;;;;;5057550;28;20470;-75
2021/09/14 07:59:25;;;;;;;0.40;0.30;;;19.60;99.90;;;;;;5058139;28;20986;-74
2021/09/14 08:01:51;;;;;;;0.40;0.30;;;19.70;99.90;;;;;;5058539;28;20889;-73
2021/09/14 08:04:17;;;;;;;0.40;0.20;;;19.90;99.90;;;;;;5058357;28;20431;-73
2021/09/14 08:06:43;;;;;;;0.40;0.20;;;19.80;99.90;;;;;;5056073;28;20436;-74
2021/09/14 08:09:08;;;;;;;0.40;0.20;;;19.90;99.90;;;;;;5058000;28;20934;-74
2021/09/14 08:11:35;;;;;;;0.40;0.20;;;20.00;99.90;;;;;;5056324;28;20392;-73
2021/09/14 08:14:01;;;;;;;0.40;0.30;;;20.10;99.90;;;;;;5058141;28;20506;-74
2021/09/14 08:16:27;;;;;;;0.40;0.30;;;20.00;99.90;;;;;;5054972;28;20445;-74
2021/09/14 08:18:53;;;;;;;0.40;0.30;;;20.10;99.90;;;;;;5058032;28;20485;-75
2021/09/14 08:21:18;;;;;;;0.40;0.20;;;20.30;99.90;;;;;;5058674;28;21319;-73
2021/09/14 08:23:44;;;;;;;0.40;0.30;;;20.40;99.90;;;;;;5057616;28;20724;-75
2021/09/14 08:26:10;;;;;;;0.40;0.30;;;20.30;99.90;;;;;;5055474;28;20752;-74
2021/09/14 08:28:36;;;;;;;0.40;0.30;;;20.50;99.90;;;;;;5056932;28;20392;-73
2021/09/14 08:31:01;;;;;;;0.40;0.30;;;20.60;99.90;;;;;;5058813;28;20949;-74
2021/09/14 08:33:27;;;;;;;0.40;0.30;;;20.50;99.90;;;;;;5044851;28;20470;-74
2021/09/14 08:35:53;;;;;;;0.40;0.30;;;20.50;99.90;;;;;;5064480;28;20384;-73
2021/09/14 08:38:19;;;;;;;0.40;0.20;;;20.60;99.90;;;;;;5070608;28;20855;-73
2021/09/14 08:40:47;;;;;;;0.40;0.30;;;20.60;99.90;;;;;;5064552;28;20397;-73
2021/09/14 08:43:13;;;;;;;0.40;0.20;;;20.80;99.90;;;;;;5050538;28;20742;-73
2021/09/14 08:45:39;;;;;;;0.40;0.30;;;20.60;99.90;;;;;;5049951;28;20373;-74
2021/09/14 08:48:06;;;;;;;0.40;0.30;;;20.80;99.90;;;;;;5050140;28;21083;-74
2021/09/14 08:50:32;;;;;;;0.40;0.20;;;20.90;99.90;;;;;;5049585;28;20389;-75
2021/09/14 08:52:58;;;;;;;0.40;0.20;;;21.10;99.90;;;;;;5050095;28;20820;-74
2021/09/14 08:55:24;;;;;;;0.40;0.20;;;21.20;99.90;;;;;;5049387;28;20393;-74
2021/09/14 08:57:51;;;;;;;0.40;0.20;;;21.30;99.90;;;;;;5050268;28;20382;-74
2021/09/14 09:00:29;;;;;;;0.40;0.30;;;21.30;99.90;;;;;;5050632;28;20388;-73
2021/09/14 09:02:55;;;;;;;0.40;0.30;;;21.50;99.90;;;;;;5050956;28;20623;-73
2021/09/14 09:05:30;;;;;;;0.40;0.20;;;21.40;99.90;;;;;;5049830;28;20425;-73
2021/09/14 09:07:55;;;;;;;0.40;0.30;;;21.60;99.90;;;;;;5051172;28;20397;-73
2021/09/14 09:10:21;;;;;;;0.40;0.30;;;21.70;99.90;;;;;;5050975;28;20382;-73
2021/09/14 09:12:48;;;;;;;0.40;0.20;;;21.80;99.90;;;;;;5050170;28;20793;-73
2021/09/14 09:15:40;;;;;;;0.40;0.30;;;21.60;99.90;;;;;;5050953;28;20882;-73
2021/09/14 09:18:10;;;;;;;0.40;0.30;;;21.60;99.90;;;;;;5049039;28;20402;-73
2021/09/14 09:20:38;;;;;;;0.40;0.30;;;21.60;99.90;;;;;;5050358;28;20388;-73
2021/09/14 09:23:13;;;;;;;0.40;0.30;;;21.90;99.90;;;;;;5050989;28;20388;-73
2021/09/14 09:25:39;;;;;;;0.40;0.20;;;22.00;99.90;;;;;;5050780;28;20385;-73
2021/09/14 09:28:08;;;;;;;0.40;0.20;;;22.00;99.90;;;;;;5054928;28;20421;-73
2021/09/14 09:30:37;;;;;;;0.40;0.20;;;22.00;99.90;;;;;;5054139;28;20464;-74
2021/09/14 09:33:07;;;;;;;0.40;0.20;;;22.20;99.90;;;;;;5054832;28;20394;-73
2021/09/14 09:35:36;;;;;;;0.40;0.20;;;22.50;99.90;;;;;;5054275;28;20397;-74
2021/09/14 09:38:04;;;;;;;0.40;0.20;;;22.70;99.90;;;;;;5054874;28;20463;-73
2021/09/14 09:40:35;;;;;;;0.40;0.20;;;22.80;99.90;;;;;;5054204;28;20377;-77
2021/09/14 09:43:06;;;;;;;0.40;0.30;;;22.80;99.90;;;;;;5054837;28;20385;-73
2021/09/14 09:45:33;;;;;;;0.40;0.20;;;22.90;99.90;;;;;;5054166;28;20446;-74
2021/09/14 09:48:00;;;;;;;0.40;0.20;;;23.20;99.90;;;;;;5054547;28;20392;-73
2021/09/14 09:50:26;;;;;;;0.40;0.30;;;23.30;99.90;;;;;;5054926;28;20442;-73
2021/09/14 09:52:53;;;;;;;0.40;0.27;;;23.60;99.90;;;;;;5053925;28;20849;-73
2021/09/14 09:55:20;;;;;;;0.40;0.30;;;23.60;99.90;;;;;;5020134;28;20938;-74
2021/09/14 09:57:47;;;;;;;0.40;0.20;;;23.70;99.90;;;;;;5053789;28;20454;-73
2021/09/14 10:00:13;;;;;;;0.50;0.40;;;23.70;99.90;;;;;;5054415;28;20384;-73
2021/09/14 10:02:58;;;;;;;0.40;0.30;;;23.70;99.90;;;;;;5035119;28;20405;-73
2021/09/14 10:05:34;;;;;;;0.50;0.30;;;23.70;99.90;;;;;;5054188;28;20399;-72
2021/09/14 10:08:08;;;;;;;0.40;0.20;;;23.60;99.90;;;;;;5054178;28;20862;-72
2021/09/14 10:10:36;;;;;;;0.40;0.20;;;23.60;99.90;;;;;;5061477;28;20761;-74
2021/09/14 10:13:04;;;;;;;0.40;0.20;;;23.50;99.90;;;;;;5094293;28;20386;-73
2021/09/14 10:15:40;;;;;;;0.40;0.20;;;23.70;99.90;;;;;;5094260;28;20386;-73
2021/09/14 10:18:07;;;;;;;0.40;0.30;;;23.50;99.90;;;;;;5094703;28;20390;-73
2021/09/14 10:20:40;;;;;;;0.40;0.30;;;23.60;99.90;;;;;;5093812;28;20374;-74
2021/09/14 10:23:18;;;;;;;0.40;0.30;;;23.70;99.90;;;;;;5075974;28;20945;-73
2021/09/14 10:25:46;;;;;;;0.40;0.30;;;23.70;99.90;;;;;;5075442;28;20730;-73
2021/09/14 10:28:14;;;;;;;0.40;0.20;;;23.80;99.90;;;;;;5094036;28;20378;-73
2021/09/14 10:30:41;;;;;;;0.40;0.20;;;24.00;99.90;;;;;;5093494;28;20489;-71
2021/09/14 10:33:21;;;;;;;0.40;0.30;;;24.20;99.90;;;;;;5093731;28;20819;-72
2021/09/14 10:35:47;;;;;;;1.00;0.50;;;24.30;99.90;;;;;;5093448;28;20389;-72
2021/09/14 10:38:16;;;;;;;0.40;0.30;;;24.20;99.90;;;;;;5092955;28;20473;-72
2021/09/14 10:40:50;;;;;;;0.40;0.20;;;24.20;99.90;;;;;;5093145;28;20433;-73
2021/09/14 10:43:32;;;;;;;0.40;0.20;;;24.30;99.90;;;;;;5093712;28;20885;-72
2021/09/14 10:45:58;;;;;;;0.40;0.20;;;24.30;99.90;;;;;;5093126;28;20420;-73
2021/09/14 10:48:34;;;;;;;0.40;0.30;;;24.40;99.90;;;;;;5093644;28;20374;-72
2021/09/14 10:51:14;;;;;;;0.40;0.30;;;24.50;99.90;;;;;;5093865;28;20386;-73
2021/09/14 10:53:40;;;;;;;0.40;0.30;;;24.70;99.90;;;;;;5092930;28;20402;-73
2021/09/14 10:56:09;;;;;;;0.40;0.20;;;24.80;99.90;;;;;;5075586;28;20737;-73
2021/09/14 10:58:41;;;;;;;0.40;0.30;;;25.00;96.60;;;;;;5074931;28;20383;-74
2021/09/14 11:01:07;;;;;;;0.40;0.30;;;25.10;95.80;;;;;;5093417;28;20409;-72
2021/09/14 11:03:32;;;;;;;0.40;0.30;;;25.10;95.10;;;;;;5093389;28;20374;-72
2021/09/14 11:05:58;;;;;;;0.40;0.30;;;25.20;94.60;;;;;;5092844;28;20464;-71
2021/09/14 11:08:26;;;;;;;0.40;0.30;;;25.20;95.60;;;;;;5093360;28;20412;-72
2021/09/14 11:10:58;;;;;;;0.40;0.20;;;25.30;94.80;;;;;;5077000;28;20384;-72
2021/09/14 11:13:26;;;;;;;0.40;0.30;;;25.40;94.30;;;;;;5073103;28;20407;-72
2021/09/14 11:16:10;;;;;;;0.40;0.20;;;25.80;93.50;;;;;;5072454;28;20413;-72
2021/09/14 11:18:36;;;;;;;0.40;0.38;;;25.80;93.10;;;;;;5072559;28;20383;-74
2021/09/14 11:21:13;;;;;;;0.40;0.20;;;25.70;93.80;;;;;;5072943;28;20694;-72
2021/09/14 11:23:46;;;;;;;0.40;0.30;;;25.70;94.00;;;;;;5054462;28;20400;-73
2021/09/14 11:26:14;;;;;;;0.40;0.28;;;25.90;93.30;;;;;;5072894;28;20372;-72
2021/09/14 11:28:41;;;;;;;0.40;0.20;;;26.30;93.50;;;;;;5072101;28;20387;-72
2021/09/14 11:31:11;;;;;;;0.40;0.30;;;26.40;93.90;;;;;;5072761;28;20396;-72
2021/09/14 11:33:41;;;;;;;0.60;0.50;;;26.30;92.60;;;;;;5071898;28;20590;-74
2021/09/14 11:36:08;;;;;;;0.40;0.20;;;26.00;92.70;;;;;;5072260;28;20437;-72
2021/09/14 11:38:34;;;;;;;0.40;0.20;;;26.00;94.20;;;;;;5072449;28;20376;-72
2021/09/14 11:41:01;;;;;;;0.40;0.30;;;25.90;92.60;;;;;;5054077;28;20419;-71
2021/09/14 11:43:29;;;;;;;0.40;0.20;;;25.80;93.80;;;;;;5072447;28;20384;-72
2021/09/14 11:45:59;;;;;;;0.40;0.25;;;25.90;93.10;;;;;;5071724;28;20810;-72
2021/09/14 11:48:28;;;;;;;0.40;0.30;;;25.80;93.50;;;;;;5072371;28;20502;-72
2021/09/14 11:51:08;;;;;;;0.40;0.30;;;26.00;93.10;;;;;;5071592;28;20883;-71
2021/09/14 11:53:36;;;;;;;0.40;0.30;;;26.20;93.80;;;;;;5071859;28;20408;-73
2021/09/14 11:56:11;;;;;;;0.40;0.30;;;26.80;91.70;;;;;;5071579;28;20778;-72
2021/09/14 11:58:40;;;;;;;0.40;0.30;;;27.00;91.30;;;;;;5054307;28;20396;-72
2021/09/14 12:01:10;;;;;;;0.40;0.20;;;26.80;91.50;;;;;;5071444;28;20892;-72
2021/09/14 12:03:37;;;;;;;0.40;0.30;;;26.80;92.30;;;;;;5072091;28;20396;-72
2021/09/14 12:06:07;;;;;;;0.40;0.20;;;26.50;92.30;;;;;;5072016;28;20479;-72
2021/09/14 12:08:34;;;;;;;0.40;0.20;;;26.50;93.20;;;;;;5072119;28;20376;-72
2021/09/14 12:11:02;;;;;;;0.40;0.20;;;26.30;92.40;;;;;;5087945;28;20370;-72
2021/09/14 12:13:42;;;;;;;0.40;0.20;;;26.20;93.50;;;;;;5092165;28;20478;-72
2021/09/14 12:16:13;;;;;;;0.40;0.30;;;26.10;93.00;;;;;;5092262;28;20385;-72
2021/09/14 12:18:42;;;;;;;0.40;0.20;;;26.30;92.40;;;;;;5091731;28;20503;-75
2021/09/14 12:21:11;;;;;;;0.40;0.20;;;26.20;92.50;;;;;;5091954;28;20428;-72
2021/09/14 12:23:39;;;;;;;0.40;0.30;;;26.10;92.30;;;;;;5073601;28;20455;-72
2021/09/14 12:26:23;;;;;;;0.40;0.30;;;26.10;92.10;;;;;;5091866;28;20696;-72
2021/09/14 12:28:51;;;;;;;0.40;0.20;;;25.90;93.40;;;;;;5091287;28;20397;-72
2021/09/14 12:31:17;;;;;;;0.40;0.20;;;25.70;93.10;;;;;;5091949;28;20406;-72
2021/09/14 12:33:44;;;;;;;0.40;0.30;;;25.70;93.30;;;;;;5090742;28;20456;-72
2021/09/14 12:36:11;;;;;;;0.40;0.20;;;25.60;93.30;;;;;;5091564;28;20412;-71
2021/09/14 12:38:37;;;;;;;0.40;0.30;;;25.70;93.70;;;;;;5091720;28;20381;-72
2021/09/14 12:41:03;;;;;;;0.40;0.20;;;25.70;93.70;;;;;;5090872;28;20799;-72
2021/09/14 12:43:29;;;;;;;0.40;0.30;;;25.50;93.40;;;;;;5091364;28;20428;-72
2021/09/14 12:45:55;;;;;;;0.40;0.20;;;25.50;93.70;;;;;;5091036;28;20370;-72
2021/09/14 12:48:20;;;;;;;0.40;0.20;;;25.60;93.50;;;;;;5091332;28;20882;-72
2021/09/14 12:50:46;;;;;;;0.40;0.20;;;25.50;94.30;;;;;;5090784;28;20378;-72
2021/09/14 12:53:12;;;;;;;0.40;0.30;;;25.70;93.40;;;;;;5091191;28;20877;-72
2021/09/14 12:55:38;;;;;;;0.40;0.28;;;25.60;93.80;;;;;;5091567;28;20435;-73
2021/09/14 12:58:05;;;;;;;0.40;0.30;;;25.70;93.00;;;;;;5072767;28;20896;-72
2021/09/14 13:00:32;;;;;;;0.40;0.30;;;25.80;93.10;;;;;;5090976;28;20385;-72
2021/09/14 13:02:57;;;;;;;0.40;0.30;;;25.70;94.30;;;;;;5090908;28;20485;-74
2021/09/14 13:05:28;;;;;;;0.40;0.30;;;25.80;93.30;;;;;;5091807;28;20531;-73
2021/09/14 13:07:55;;;;;;;0.40;0.20;;;25.80;93.90;;;;;;5090955;28;20382;-73
2021/09/14 13:10:20;;;;;;;0.40;0.20;;;25.80;93.30;;;;;;5080028;28;20379;-73
2021/09/14 13:12:48;;;;;;;0.40;0.20;;;25.70;93.70;;;;;;5052582;28;20780;-73
2021/09/14 13:17:59;;;;;;;0.40;0.20;;;25.60;95.10;;;;;;5070271;28;20740;-73
2021/09/14 13:20:27;;;;;;;0.40;0.30;;;25.60;94.50;;;;;;5070980;28;20413;-72
2021/09/14 13:22:53;;;;;;;0.40;0.20;;;25.70;94.70;;;;;;5070504;28;20432;-72
2021/09/14 13:25:19;;;;;;;0.40;0.20;;;25.60;94.60;;;;;;5070985;28;20440;-72
2021/09/14 13:27:45;;;;;;;0.40;0.30;;;25.60;94.70;;;;;;5070540;28;20413;-73
2021/09/14 13:30:11;;;;;;;0.40;0.20;;;25.60;94.90;;;;;;5071222;28;20387;-73
2021/09/14 13:32:36;;;;;;;0.40;0.30;;;25.50;95.40;;;;;;5071194;28;20411;-72
2021/09/14 13:35:02;;;;;;;0.40;0.30;;;25.50;95.30;;;;;;5052216;28;20407;-72
2021/09/14 13:37:28;;;;;;;0.40;0.20;;;25.60;95.90;;;;;;5070972;28;20379;-72
2021/09/14 13:39:54;;;;;;;0.40;0.30;;;25.50;95.20;;;;;;5070582;28;20382;-72
2021/09/14 13:42:24;;;;;;;0.40;0.20;;;25.40;96.20;;;;;;5070979;28;20433;-72
2021/09/14 13:47:20;;;;;;;0.40;0.40;;;25.20;96.80;;;;;;5070898;28;20375;-72